Time;durP1;ratioP1;P1;durP2;ratioP2;P2;SDS_P1;SDS_P2;PMS_P1;PMS_P2;Temp;Humidity;BMP_temperature;BMP_pressure;BME280_temperature;BME280_humidity;BME280_pressure;Samples;Min_cycle;Max_cycle;Signal;HPM_P1;HPM_P2
2021/06/11 00:00:11;;;;;;;26.50;16.53;;;18.40;97.30;;;;;;4906588;29;20228;-92
2021/06/11 00:02:52;;;;;;;21.10;15.17;;;18.40;97.30;;;;;;4907521;29;20433;-92
2021/06/11 00:05:32;;;;;;;25.83;16.20;;;18.50;97.30;;;;;;4908114;29;20439;-94
2021/06/11 00:12:13;;;;;;;22.07;15.43;;;18.40;97.30;;;;;;4887849;29;20441;-95
2021/06/11 00:14:40;;;;;;;22.50;15.27;;;18.40;97.30;;;;;;4887026;29;20431;-95
2021/06/11 00:17:06;;;;;;;21.53;15.27;;;18.40;97.30;;;;;;4886190;29;20415;-95
2021/06/11 00:19:32;;;;;;;23.00;16.30;;;18.40;97.30;;;;;;4886778;29;20459;-94
2021/06/11 00:21:58;;;;;;;26.93;16.00;;;18.40;97.30;;;;;;4888102;29;20957;-95
2021/06/11 00:24:24;;;;;;;28.53;16.90;;;18.50;97.30;;;;;;4875054;29;20186;-95
2021/06/11 00:26:49;;;;;;;23.70;16.10;;;18.50;97.30;;;;;;4889733;29;20434;-96
2021/06/11 00:29:20;;;;;;;26.30;16.47;;;18.50;97.30;;;;;;4892709;29;20249;-95
2021/06/11 00:31:46;;;;;;;23.50;16.60;;;18.40;97.30;;;;;;4891675;29;20209;-95
2021/06/11 00:34:21;;;;;;;24.00;17.67;;;18.40;97.30;;;;;;4891110;29;20486;-95
2021/06/11 00:36:46;;;;;;;24.03;15.83;;;18.40;97.30;;;;;;4889469;29;20182;-95
2021/06/11 00:39:12;;;;;;;37.83;17.20;;;18.30;97.30;;;;;;4912618;29;20476;-95
2021/06/11 00:41:37;;;;;;;26.30;17.43;;;18.30;97.30;;;;;;4913483;29;20187;-96
2021/06/11 00:44:07;;;;;;;23.40;16.63;;;18.30;97.30;;;;;;4915233;29;20181;-95
2021/06/11 00:46:35;;;;;;;22.63;16.97;;;18.20;97.30;;;;;;4913517;29;20185;-95
2021/06/11 00:49:01;;;;;;;27.40;17.87;;;18.20;97.30;;;;;;4912750;29;20464;-96
2021/06/11 00:51:36;;;;;;;28.60;17.20;;;18.20;97.30;;;;;;4911524;29;20431;-96
2021/06/11 00:54:02;;;;;;;24.17;16.77;;;18.20;97.30;;;;;;4913234;29;20267;-95
2021/06/11 00:56:27;;;;;;;24.27;16.57;;;18.20;97.30;;;;;;4909800;29;20464;-95
2021/06/11 00:59:40;;;;;;;24.07;16.50;;;18.20;97.30;;;;;;4908680;29;20243;-96
2021/06/11 01:02:31;;;;;;;27.77;16.70;;;18.10;97.30;;;;;;4910406;29;20184;-95
2021/06/11 01:05:17;;;;;;;28.13;16.23;;;18.10;97.30;;;;;;4911167;29;20475;-94
2021/06/11 02:40:38;;;;;;;30.20;18.80;;;17.50;97.30;;;;;;5003963;23;20518;-94
2021/06/11 02:56:46;;;;;;;28.17;18.97;;;17.50;97.30;;;;;;4929616;29;20425;-96
2021/06/11 02:59:17;;;;;;;27.40;18.37;;;17.50;97.30;;;;;;4905482;29;20476;-95
2021/06/11 03:01:50;;;;;;;31.63;18.77;;;17.50;97.30;;;;;;4911571;29;20463;-95
2021/06/11 03:04:33;;;;;;;28.20;18.90;;;17.50;97.30;;;;;;4911215;29;20440;-95
2021/06/11 03:07:00;;;;;;;28.47;17.97;;;17.50;97.30;;;;;;4911603;29;20428;-94
2021/06/11 03:09:40;;;;;;;29.47;19.20;;;17.50;97.30;;;;;;4912254;29;20464;-95
2021/06/11 03:12:07;;;;;;;25.90;18.03;;;17.50;97.30;;;;;;4912193;29;20423;-95
2021/06/11 03:14:37;;;;;;;27.17;18.70;;;17.50;97.30;;;;;;4911493;29;20516;-95
2021/06/11 03:17:06;;;;;;;32.13;19.17;;;17.50;97.30;;;;;;4910526;29;20498;-95
2021/06/11 03:19:37;;;;;;;26.97;18.70;;;17.40;97.30;;;;;;4909225;29;20504;-96
2021/06/11 03:54:47;;;;;;;25.73;17.97;;;17.40;97.30;;;;;;4925489;29;20563;-94
2021/06/11 03:57:15;;;;;;;29.53;18.17;;;17.40;97.30;;;;;;4909597;29;20424;-95
2021/06/11 03:59:46;;;;;;;32.17;17.90;;;17.40;97.30;;;;;;4912714;29;20448;-96
2021/06/11 04:02:11;;;;;;;27.50;18.80;;;17.40;97.30;;;;;;4911371;29;20429;-95
2021/06/11 04:04:37;;;;;;;40.50;20.23;;;17.40;97.30;;;;;;4912105;29;20480;-96
2021/06/11 04:07:09;;;;;;;29.27;17.23;;;17.40;97.30;;;;;;4913755;29;20188;-95
2021/06/11 04:09:49;;;;;;;29.80;18.40;;;17.40;97.30;;;;;;4913556;29;20213;-95
2021/06/11 04:12:37;;;;;;;28.33;18.23;;;17.40;97.30;;;;;;4915088;29;20417;-95
2021/06/11 04:15:05;;;;;;;27.30;17.90;;;17.40;97.30;;;;;;4913136;29;20420;-94
2021/06/11 04:17:46;;;;;;;27.67;18.40;;;17.50;97.30;;;;;;4915657;29;20515;-96
2021/06/11 04:21:07;;;;;;;24.90;17.60;;;17.50;97.30;;;;;;4902810;29;20514;-96
2021/06/11 04:23:53;;;;;;;24.73;16.00;;;17.50;97.30;;;;;;4838420;29;20705;-96
2021/06/11 04:31:31;;;;;;;28.63;18.00;;;17.60;97.30;;;;;;4908079;29;20489;-95
2021/06/11 04:33:58;;;;;;;33.10;18.70;;;17.60;97.30;;;;;;4910664;29;20410;-95
2021/06/11 04:36:47;;;;;;;27.93;17.73;;;17.60;97.30;;;;;;4907907;29;20460;-96
2021/06/11 04:39:13;;;;;;;28.53;17.40;;;17.60;97.30;;;;;;4890080;29;20477;-95
2021/06/11 04:41:42;;;;;;;25.83;16.90;;;17.60;97.30;;;;;;4891358;29;20417;-96
2021/06/11 04:44:12;;;;;;;30.33;18.80;;;17.60;97.30;;;;;;4895284;29;20173;-94
2021/06/11 04:46:40;;;;;;;24.43;16.47;;;17.70;97.30;;;;;;4893101;29;20425;-94
2021/06/11 04:49:31;;;;;;;26.63;17.57;;;17.70;97.30;;;;;;4898807;29;20493;-94
2021/06/11 04:51:57;;;;;;;33.37;17.13;;;17.80;97.30;;;;;;4892872;29;20442;-94
2021/06/11 04:54:48;;;;;;;27.43;17.60;;;17.80;97.30;;;;;;4892740;29;20422;-95
2021/06/11 04:57:25;;;;;;;24.50;16.23;;;17.90;97.30;;;;;;4872896;29;20189;-95
2021/06/11 05:00:00;;;;;;;24.10;16.30;;;18.00;97.30;;;;;;4891730;29;20965;-95
2021/06/11 05:02:36;;;;;;;26.63;17.07;;;17.90;97.30;;;;;;4890467;29;20433;-94
2021/06/11 05:05:03;;;;;;;27.63;16.80;;;18.00;97.30;;;;;;4899082;29;20429;-96
2021/06/11 05:07:31;;;;;;;29.67;16.70;;;18.00;97.30;;;;;;4888362;29;20448;-95
2021/06/11 05:10:14;;;;;;;24.10;16.03;;;18.10;97.30;;;;;;4889133;29;20468;-94
2021/06/11 05:12:39;;;;;;;21.17;14.50;;;18.10;97.30;;;;;;4890797;29;20459;-94
2021/06/11 05:18:37;;;;;;;19.97;14.00;;;18.20;97.30;;;;;;4846030;23;20462;-75
2021/06/11 05:21:03;;;;;;;23.70;14.53;;;18.20;97.30;;;;;;4918473;29;20440;-76
2021/06/11 05:23:30;;;;;;;29.10;14.53;;;18.30;97.30;;;;;;4911256;29;20572;-76
2021/06/11 05:25:56;;;;;;;20.20;13.10;;;18.30;97.30;;;;;;4902851;29;20420;-76
2021/06/11 05:28:22;;;;;;;18.60;13.10;;;18.40;97.30;;;;;;4916534;29;20412;-76
2021/06/11 05:30:53;;;;;;;20.53;14.37;;;18.40;97.30;;;;;;4916460;29;20689;-76
2021/06/11 05:33:19;;;;;;;20.80;13.13;;;18.40;97.30;;;;;;4916772;29;20427;-76
2021/06/11 05:35:45;;;;;;;23.30;14.27;;;18.50;97.30;;;;;;4916339;29;20427;-76
2021/06/11 05:38:12;;;;;;;22.03;12.53;;;18.50;97.30;;;;;;4914139;29;20415;-75
2021/06/11 05:40:39;;;;;;;18.67;13.30;;;18.60;97.30;;;;;;4933448;29;20196;-76
2021/06/11 05:43:05;;;;;;;17.60;12.53;;;18.70;97.30;;;;;;4915120;29;20883;-76
2021/06/11 05:45:32;;;;;;;16.57;12.07;;;18.70;97.30;;;;;;4932407;29;20428;-76
2021/06/11 05:47:58;;;;;;;18.40;12.43;;;18.80;97.30;;;;;;4916007;29;20416;-77
2021/06/11 05:50:26;;;;;;;18.13;12.30;;;18.80;97.30;;;;;;4933122;29;20830;-76
2021/06/11 05:52:52;;;;;;;22.63;13.07;;;18.90;97.30;;;;;;4915297;29;20422;-76
2021/06/11 05:55:18;;;;;;;19.30;12.43;;;18.90;97.30;;;;;;4916959;29;20791;-76
2021/06/11 05:57:43;;;;;;;22.33;12.43;;;19.00;97.30;;;;;;4917577;29;20416;-76
2021/06/11 06:00:09;;;;;;;17.60;11.60;;;19.10;97.30;;;;;;4916631;29;20183;-77
2021/06/11 06:02:35;;;;;;;19.87;11.90;;;19.10;97.30;;;;;;4915043;29;20214;-77
2021/06/11 06:05:01;;;;;;;20.40;12.37;;;19.20;97.30;;;;;;4915157;29;20428;-76
2021/06/11 06:07:26;;;;;;;19.77;11.33;;;19.20;97.30;;;;;;4915985;29;20190;-75
2021/06/11 06:09:52;;;;;;;17.97;11.50;;;19.30;97.30;;;;;;4918688;29;20709;-76
2021/06/11 06:12:18;;;;;;;25.40;12.23;;;19.40;97.30;;;;;;4920027;29;20730;-77
2021/06/11 06:14:43;;;;;;;19.40;10.50;;;19.40;97.30;;;;;;4919728;29;20176;-76
2021/06/11 06:17:09;;;;;;;19.00;12.37;;;19.40;97.30;;;;;;4920107;29;20175;-76
2021/06/11 06:19:34;;;;;;;16.97;11.50;;;19.50;97.30;;;;;;4920014;29;20251;-76
2021/06/11 06:22:00;;;;;;;18.80;13.00;;;19.60;97.30;;;;;;4920041;29;20204;-76
2021/06/11 06:24:25;;;;;;;18.00;11.80;;;19.60;97.30;;;;;;4919662;29;20218;-76
2021/06/11 06:26:51;;;;;;;18.00;11.93;;;19.70;97.30;;;;;;4919974;29;20176;-76
2021/06/11 06:29:17;;;;;;;23.57;13.57;;;19.70;97.30;;;;;;4920029;29;20271;-76
2021/06/11 06:31:42;;;;;;;17.67;12.20;;;19.80;97.30;;;;;;4919697;29;20200;-77
2021/06/11 06:34:08;;;;;;;21.10;12.73;;;19.80;97.30;;;;;;4919819;29;20215;-76
2021/06/11 06:36:33;;;;;;;20.43;13.37;;;19.80;97.30;;;;;;4920068;29;20180;-76
2021/06/11 06:39:01;;;;;;;22.00;13.30;;;19.90;97.30;;;;;;4919785;29;20210;-76
2021/06/11 06:41:28;;;;;;;23.27;15.03;;;20.00;97.30;;;;;;4919282;29;20200;-76
2021/06/11 06:43:53;;;;;;;19.63;13.07;;;20.00;97.30;;;;;;4919736;29;20428;-76
2021/06/11 06:46:22;;;;;;;19.90;14.10;;;20.10;97.30;;;;;;4919376;29;20475;-76
2021/06/11 06:48:49;;;;;;;21.87;15.50;;;20.20;97.30;;;;;;4919565;29;20348;-76
2021/06/11 06:51:15;;;;;;;26.30;15.70;;;20.20;97.30;;;;;;4919269;29;20439;-76
2021/06/11 06:53:41;;;;;;;24.97;15.80;;;20.20;97.30;;;;;;4919253;29;20502;-77
2021/06/11 06:56:06;;;;;;;24.50;15.20;;;20.30;97.30;;;;;;4919638;29;20507;-76
2021/06/11 06:58:32;;;;;;;30.23;18.07;;;20.40;97.30;;;;;;4936410;29;20176;-76
2021/06/11 07:00:57;;;;;;;24.73;15.27;;;20.40;97.30;;;;;;4919714;29;20246;-76
2021/06/11 07:03:23;;;;;;;27.00;15.30;;;20.50;97.30;;;;;;4919116;29;20180;-76
2021/06/11 07:05:49;;;;;;;23.80;16.47;;;20.50;97.30;;;;;;4919500;29;20176;-76
2021/06/11 07:08:15;;;;;;;23.87;15.33;;;20.60;97.30;;;;;;4936086;29;20251;-76
2021/06/11 07:10:40;;;;;;;27.13;15.40;;;20.70;97.30;;;;;;4918865;29;20990;-76
2021/06/11 07:13:06;;;;;;;25.17;16.53;;;20.70;97.30;;;;;;4936036;29;20435;-76
2021/06/11 07:15:32;;;;;;;23.70;15.50;;;20.80;97.30;;;;;;4936214;29;20171;-76
2021/06/11 07:17:57;;;;;;;23.03;14.73;;;20.90;97.30;;;;;;4918997;29;20176;-76
2021/06/11 07:20:23;;;;;;;21.03;16.37;;;20.90;97.30;;;;;;4918069;29;20231;-76
2021/06/11 07:22:49;;;;;;;22.67;15.43;;;21.10;97.30;;;;;;4918795;29;20184;-76
2021/06/11 07:25:15;;;;;;;24.13;15.47;;;21.10;97.30;;;;;;4935749;29;20219;-76
2021/06/11 07:27:41;;;;;;;21.63;16.13;;;21.20;97.30;;;;;;4918930;29;20251;-77
2021/06/11 07:30:08;;;;;;;22.93;17.17;;;21.20;97.30;;;;;;4936060;29;20966;-76
2021/06/11 07:32:34;;;;;;;33.40;15.47;;;21.30;97.30;;;;;;4918550;29;20255;-77
2021/06/11 07:35:00;;;;;;;27.33;16.27;;;21.40;97.30;;;;;;4918927;29;20915;-76
2021/06/11 07:37:26;;;;;;;26.63;15.53;;;21.50;97.30;;;;;;4918656;29;20240;-76
2021/06/11 07:39:52;;;;;;;23.17;15.93;;;21.50;97.30;;;;;;4918379;29;20259;-77
2021/06/11 07:42:18;;;;;;;22.60;16.20;;;21.50;97.30;;;;;;4918262;29;20443;-76
2021/06/11 07:44:44;;;;;;;23.17;16.77;;;21.60;97.30;;;;;;4918967;29;20424;-76
2021/06/11 07:47:10;;;;;;;26.90;17.70;;;21.60;97.30;;;;;;4918638;29;20199;-76
2021/06/11 07:49:38;;;;;;;27.97;16.40;;;21.70;97.30;;;;;;4918196;29;20208;-76
2021/06/11 07:52:05;;;;;;;24.10;16.37;;;21.70;97.30;;;;;;4918158;29;20440;-75
2021/06/11 07:54:30;;;;;;;25.37;16.50;;;21.80;97.30;;;;;;4918186;29;20435;-76
2021/06/11 07:56:56;;;;;;;22.80;17.10;;;21.90;97.30;;;;;;4918308;29;20412;-76
2021/06/11 07:59:22;;;;;;;25.50;15.33;;;22.10;97.30;;;;;;4919435;29;20683;-76
2021/06/11 08:01:47;;;;;;;22.50;17.13;;;22.20;97.30;;;;;;4918489;29;20203;-78
2021/06/11 08:04:13;;;;;;;23.20;16.90;;;22.30;96.40;;;;;;4918297;29;20186;-77
2021/06/11 08:06:39;;;;;;;22.30;16.43;;;22.40;95.70;;;;;;4918501;29;20644;-76
2021/06/11 08:09:05;;;;;;;26.13;15.60;;;22.40;95.70;;;;;;4917920;29;20283;-76
2021/06/11 08:11:31;;;;;;;24.63;17.60;;;22.40;96.60;;;;;;4918167;29;20610;-76
2021/06/11 08:13:56;;;;;;;24.53;17.97;;;22.50;95.80;;;;;;4918161;29;20182;-77
2021/06/11 08:16:24;;;;;;;19.50;16.67;;;22.50;95.10;;;;;;4918040;29;20227;-76
2021/06/11 08:18:50;;;;;;;24.10;16.90;;;22.50;96.20;;;;;;4918103;29;20263;-76
2021/06/11 08:21:16;;;;;;;25.93;17.50;;;22.60;95.30;;;;;;4934895;29;20804;-76
2021/06/11 08:23:42;;;;;;;25.70;18.63;;;22.70;96.00;;;;;;4917930;29;20416;-76
2021/06/11 08:26:07;;;;;;;23.10;17.30;;;22.80;95.20;;;;;;4917997;29;20176;-76
2021/06/11 08:28:33;;;;;;;27.37;16.90;;;22.80;94.60;;;;;;4917687;29;20220;-76
2021/06/11 08:30:58;;;;;;;31.03;18.77;;;22.80;94.70;;;;;;4917891;29;20208;-76
2021/06/11 08:33:24;;;;;;;21.70;15.97;;;22.80;95.00;;;;;;4917362;29;20215;-76
2021/06/11 08:35:50;;;;;;;26.33;17.00;;;22.90;96.10;;;;;;4918129;29;20183;-77
2021/06/11 08:38:15;;;;;;;26.80;17.70;;;23.00;96.20;;;;;;4917523;29;20182;-76
2021/06/11 08:40:41;;;;;;;23.70;16.53;;;23.10;96.00;;;;;;4917909;29;20287;-76
2021/06/11 08:43:07;;;;;;;22.67;16.50;;;23.20;95.40;;;;;;4917266;29;20183;-76
2021/06/11 08:45:33;;;;;;;22.23;15.93;;;23.30;95.20;;;;;;4934765;29;20180;-77
2021/06/11 08:47:59;;;;;;;22.07;17.27;;;23.40;94.20;;;;;;4917471;29;20423;-76
2021/06/11 08:50:30;;;;;;;21.10;16.23;;;23.40;95.10;;;;;;4917436;29;20306;-78
2021/06/11 08:52:57;;;;;;;20.80;14.17;;;23.50;93.40;;;;;;4917049;29;20420;-76
2021/06/11 08:55:24;;;;;;;24.40;17.40;;;23.50;93.20;;;;;;4917167;29;20415;-77
2021/06/11 08:57:50;;;;;;;23.67;15.80;;;23.50;92.40;;;;;;4918482;29;20455;-76
2021/06/11 09:00:16;;;;;;;26.50;16.63;;;23.50;92.90;;;;;;4917363;29;20419;-76
2021/06/11 09:03:07;;;;;;;25.70;17.47;;;23.50;93.00;;;;;;4917110;29;20463;-77
2021/06/11 09:05:34;;;;;;;23.83;17.67;;;23.60;93.30;;;;;;4898446;29;20431;-76
2021/06/11 09:08:23;;;;;;;20.93;15.90;;;23.70;93.30;;;;;;4898235;29;20417;-76
2021/06/11 09:10:54;;;;;;;16.50;13.70;;;23.70;93.50;;;;;;4898091;29;21002;-76
2021/06/11 09:13:26;;;;;;;19.87;13.93;;;23.80;93.20;;;;;;4897845;29;20447;-77
2021/06/11 09:16:04;;;;;;;15.87;12.33;;;23.90;92.30;;;;;;4898280;29;20509;-77
2021/06/11 09:18:30;;;;;;;20.07;11.93;;;23.90;90.80;;;;;;4914914;29;20420;-77
2021/06/11 09:20:56;;;;;;;20.27;13.60;;;24.00;90.80;;;;;;4898001;29;20443;-77
2021/06/11 09:23:21;;;;;;;25.33;14.93;;;24.00;90.30;;;;;;4897889;29;20605;-76
2021/06/11 09:25:49;;;;;;;21.50;12.73;;;24.10;90.40;;;;;;4897873;29;20191;-76
2021/06/11 09:28:17;;;;;;;14.57;11.47;;;24.10;89.00;;;;;;4914907;29;20199;-77
2021/06/11 09:30:49;;;;;;;17.13;11.87;;;24.10;89.80;;;;;;4897705;29;20579;-76
2021/06/11 09:33:18;;;;;;;15.73;10.37;;;24.10;89.50;;;;;;4897695;29;20504;-77
2021/06/11 09:35:50;;;;;;;14.20;9.57;;;24.20;88.60;;;;;;4897956;29;20471;-76
2021/06/11 09:38:28;;;;;;;17.43;11.10;;;24.30;88.70;;;;;;4897436;29;20452;-77
2021/06/11 09:40:57;;;;;;;12.60;10.83;;;24.40;88.60;;;;;;4897524;29;20560;-76
2021/06/11 09:43:23;;;;;;;12.97;9.20;;;24.50;88.90;;;;;;4913979;29;20421;-78
2021/06/11 09:46:01;;;;;;;15.23;10.03;;;24.50;88.80;;;;;;4914991;29;20416;-76
2021/06/11 09:48:28;;;;;;;14.17;10.23;;;24.60;87.60;;;;;;4897385;29;20428;-78
2021/06/11 09:50:56;;;;;;;14.40;10.37;;;24.70;87.90;;;;;;4896988;29;20563;-76
2021/06/11 09:53:29;;;;;;;13.43;10.27;;;24.70;88.50;;;;;;4897144;29;20853;-76
2021/06/11 09:55:56;;;;;;;11.60;9.23;;;24.70;88.00;;;;;;4897459;29;20417;-77
2021/06/11 09:58:27;;;;;;;11.47;9.50;;;24.70;88.10;;;;;;4897566;29;20487;-77
2021/06/11 10:01:01;;;;;;;13.40;10.77;;;24.70;88.10;;;;;;4897072;29;20441;-76
2021/06/11 10:03:27;;;;;;;11.00;9.13;;;24.80;87.50;;;;;;4900108;29;20487;-76
2021/06/11 10:05:55;;;;;;;14.80;10.80;;;24.80;88.40;;;;;;4916357;29;20428;-76
2021/06/11 10:08:22;;;;;;;21.23;10.03;;;24.90;87.70;;;;;;4933022;29;20416;-76
2021/06/11 10:10:50;;;;;;;12.23;10.00;;;25.00;87.90;;;;;;4932951;29;20463;-75
2021/06/11 10:13:17;;;;;;;13.80;9.57;;;25.00;86.10;;;;;;4916117;29;20423;-76
2021/06/11 10:15:45;;;;;;;14.90;9.67;;;25.00;86.80;;;;;;4916209;29;20502;-76
2021/06/11 10:18:12;;;;;;;12.33;9.20;;;25.10;85.90;;;;;;4933088;29;20420;-76
2021/06/11 10:20:39;;;;;;;14.70;9.70;;;25.10;85.60;;;;;;4916475;29;20491;-76
2021/06/11 10:23:07;;;;;;;13.40;9.73;;;25.10;84.20;;;;;;4916113;29;20950;-75
2021/06/11 10:25:33;;;;;;;13.53;9.60;;;25.10;85.40;;;;;;4915731;29;20452;-77
2021/06/11 10:28:01;;;;;;;14.43;10.30;;;25.20;85.70;;;;;;4916178;29;20416;-76
2021/06/11 10:30:28;;;;;;;13.73;8.43;;;25.30;85.40;;;;;;4915557;29;20451;-77
2021/06/11 10:32:55;;;;;;;12.50;11.00;;;25.40;87.50;;;;;;4915948;29;20519;-77
2021/06/11 10:35:53;;;;;;;11.13;10.07;;;25.40;83.10;;;;;;4915882;29;20423;-76
2021/06/11 10:38:32;;;;;;;13.87;9.50;;;25.40;85.10;;;;;;4874593;29;20419;-75
2021/06/11 10:41:00;;;;;;;16.20;11.53;;;25.40;85.60;;;;;;4915874;29;20780;-76
2021/06/11 10:43:28;;;;;;;14.23;10.50;;;25.40;84.80;;;;;;4915981;29;21055;-76
2021/06/11 10:45:56;;;;;;;13.43;10.60;;;25.40;85.20;;;;;;4916247;29;20423;-77
2021/06/11 10:48:23;;;;;;;20.87;11.90;;;25.40;84.80;;;;;;4932830;29;20414;-76
2021/06/11 10:50:49;;;;;;;15.73;12.03;;;25.40;83.70;;;;;;4932900;29;20994;-76
2021/06/11 10:53:31;;;;;;;17.00;12.70;;;25.50;84.40;;;;;;4915901;29;20487;-78
2021/06/11 10:56:15;;;;;;;14.93;11.67;;;25.50;84.70;;;;;;4917827;29;20442;-76
2021/06/11 10:58:45;;;;;;;17.40;11.60;;;25.60;83.20;;;;;;4919365;29;20467;-76
2021/06/11 11:01:23;;;;;;;14.43;10.83;;;25.60;84.20;;;;;;4919186;29;20886;-76
2021/06/11 11:03:49;;;;;;;11.83;10.63;;;25.60;84.90;;;;;;4919311;29;20839;-77
2021/06/11 11:06:29;;;;;;;15.93;10.60;;;25.70;84.00;;;;;;4918693;29;20420;-76
2021/06/11 11:09:02;;;;;;;21.23;11.00;;;25.70;82.90;;;;;;4919218;29;20438;-78
2021/06/11 11:11:36;;;;;;;11.80;10.13;;;25.60;84.00;;;;;;4918222;29;20435;-76
2021/06/11 11:14:04;;;;;;;11.13;10.53;;;25.60;83.80;;;;;;4910824;29;20427;-75
2021/06/11 11:16:35;;;;;;;16.00;9.97;;;25.70;84.00;;;;;;4917762;29;20495;-77
2021/06/11 11:19:01;;;;;;;12.57;10.03;;;25.90;85.00;;;;;;4915470;29;20477;-76
2021/06/11 11:21:28;;;;;;;10.47;8.70;;;25.90;84.50;;;;;;4918294;29;20939;-75
2021/06/11 11:23:57;;;;;;;13.93;8.53;;;25.90;83.70;;;;;;4917924;29;20455;-76
2021/06/11 11:26:49;;;;;;;12.77;9.33;;;25.90;84.40;;;;;;4917511;29;20908;-75
2021/06/11 11:29:18;;;;;;;16.17;8.60;;;25.90;83.80;;;;;;4917325;29;20455;-76
2021/06/11 11:31:46;;;;;;;10.93;8.20;;;25.90;83.40;;;;;;4934681;29;20432;-75
2021/06/11 11:34:13;;;;;;;13.03;7.90;;;26.00;81.50;;;;;;4918453;29;20487;-76
2021/06/11 11:36:39;;;;;;;8.97;7.17;;;26.00;82.40;;;;;;4912701;29;20422;-77
2021/06/11 11:39:09;;;;;;;7.20;6.63;;;26.20;81.80;;;;;;4917898;29;21607;-77
2021/06/11 11:41:35;;;;;;;10.40;6.60;;;26.30;81.30;;;;;;4917841;29;20559;-76
2021/06/11 11:44:02;;;;;;;9.43;7.20;;;26.40;81.70;;;;;;4918943;29;20419;-76
2021/06/11 11:46:27;;;;;;;8.83;6.77;;;26.50;78.50;;;;;;4924550;29;20426;-76
2021/06/11 11:48:53;;;;;;;8.57;6.80;;;26.50;79.80;;;;;;4926663;29;20423;-77
2021/06/11 11:51:19;;;;;;;8.00;6.90;;;26.60;80.30;;;;;;4929687;29;20241;-77
2021/06/11 11:53:45;;;;;;;8.13;6.43;;;26.70;79.70;;;;;;4917049;29;20180;-79
2021/06/11 11:56:11;;;;;;;10.57;6.80;;;26.70;78.70;;;;;;4917270;29;20787;-79
2021/06/11 11:58:37;;;;;;;8.60;5.90;;;26.70;79.40;;;;;;4918156;29;20424;-79
2021/06/11 12:01:04;;;;;;;10.93;6.40;;;26.80;79.30;;;;;;4934251;29;20767;-77
2021/06/11 12:03:30;;;;;;;8.13;6.20;;;26.90;79.60;;;;;;4918468;29;20186;-79
2021/06/11 12:05:55;;;;;;;11.03;6.33;;;27.00;78.50;;;;;;4918317;29;20789;-78
2021/06/11 12:08:21;;;;;;;8.03;6.40;;;27.00;79.90;;;;;;4916755;29;20176;-76
2021/06/11 12:10:47;;;;;;;7.47;6.30;;;27.10;78.80;;;;;;4917554;29;20334;-77
2021/06/11 12:13:13;;;;;;;10.33;6.53;;;27.00;78.50;;;;;;4916995;29;20179;-77
2021/06/11 12:15:38;;;;;;;9.57;6.40;;;26.80;79.50;;;;;;4933651;29;20184;-76
2021/06/11 12:18:04;;;;;;;7.00;5.87;;;26.70;80.90;;;;;;4933883;29;20697;-76
2021/06/11 12:20:32;;;;;;;8.70;7.17;;;26.70;79.80;;;;;;4916816;29;20700;-76
2021/06/11 12:23:02;;;;;;;7.00;6.23;;;26.80;79.70;;;;;;4917767;29;20187;-76
2021/06/11 12:25:28;;;;;;;10.60;6.60;;;26.90;79.50;;;;;;4918137;29;20424;-76
2021/06/11 12:27:54;;;;;;;11.13;6.40;;;26.90;78.70;;;;;;4917668;29;20789;-76
2021/06/11 12:30:20;;;;;;;6.53;6.03;;;26.80;78.40;;;;;;4917460;29;20215;-76
2021/06/11 12:32:45;;;;;;;7.47;5.67;;;26.60;80.50;;;;;;4917689;29;20184;-77
2021/06/11 12:35:11;;;;;;;6.33;5.57;;;26.60;80.80;;;;;;4917573;29;20427;-77
2021/06/11 12:37:37;;;;;;;9.33;6.07;;;26.70;81.60;;;;;;4917239;29;20664;-77
2021/06/11 12:40:04;;;;;;;8.87;5.67;;;26.90;80.10;;;;;;4917722;29;20461;-77
2021/06/11 12:42:37;;;;;;;8.40;6.67;;;27.10;81.20;;;;;;4917647;29;20200;-78
2021/06/11 12:45:04;;;;;;;6.73;5.63;;;27.30;81.00;;;;;;4917575;29;20424;-79
2021/06/11 12:47:29;;;;;;;9.00;4.60;;;27.40;80.70;;;;;;4917135;29;20423;-77
2021/06/11 12:49:55;;;;;;;8.57;4.97;;;27.40;77.80;;;;;;4917023;29;20455;-78
2021/06/11 12:52:20;;;;;;;7.87;5.30;;;27.30;79.00;;;;;;4933849;29;20243;-77
2021/06/11 12:54:46;;;;;;;9.90;5.70;;;27.30;79.00;;;;;;4917826;29;20666;-77
2021/06/11 12:57:16;;;;;;;8.37;4.97;;;27.20;79.20;;;;;;4917215;29;20176;-77
2021/06/11 12:59:44;;;;;;;6.10;5.47;;;27.30;78.30;;;;;;4917286;29;20180;-77
2021/06/11 13:02:14;;;;;;;6.03;4.80;;;27.40;77.40;;;;;;4916656;29;20447;-77
2021/06/11 13:04:40;;;;;;;8.00;5.30;;;27.50;78.90;;;;;;4916889;29;20439;-77
2021/06/11 13:07:06;;;;;;;7.43;4.97;;;27.60;78.10;;;;;;4933884;29;20411;-77
2021/06/11 13:09:32;;;;;;;6.17;5.03;;;27.60;77.00;;;;;;4916895;29;20208;-77
2021/06/11 13:11:59;;;;;;;6.50;4.93;;;27.70;78.20;;;;;;4916799;29;20196;-77
2021/06/11 13:14:25;;;;;;;8.20;5.00;;;27.80;78.90;;;;;;4934046;29;20419;-77
2021/06/11 13:16:51;;;;;;;6.00;4.97;;;27.90;78.50;;;;;;4916820;29;20424;-78
2021/06/11 13:19:16;;;;;;;8.80;5.77;;;28.00;79.60;;;;;;4915550;29;20526;-77
2021/06/11 13:21:42;;;;;;;8.37;6.00;;;28.20;78.80;;;;;;4916600;29;20206;-76
2021/06/11 13:24:08;;;;;;;9.77;5.50;;;28.20;78.30;;;;;;4916967;29;20179;-77
2021/06/11 13:26:34;;;;;;;8.07;5.17;;;28.20;77.30;;;;;;4916855;29;20668;-77
2021/06/11 13:29:00;;;;;;;5.80;4.80;;;28.20;76.90;;;;;;4916715;29;20474;-77
2021/06/11 13:31:26;;;;;;;8.37;5.93;;;28.20;77.00;;;;;;4916404;29;20443;-77
2021/06/11 13:33:52;;;;;;;10.70;5.80;;;28.20;77.90;;;;;;4916764;29;20648;-77
2021/06/11 13:36:18;;;;;;;5.60;4.70;;;28.30;78.20;;;;;;4916596;29;20176;-77
2021/06/11 13:38:44;;;;;;;6.90;5.00;;;28.40;77.70;;;;;;4916963;29;20270;-77
2021/06/11 13:41:10;;;;;;;6.13;5.27;;;28.50;77.30;;;;;;4915901;29;20583;-77
2021/06/11 13:43:35;;;;;;;12.60;5.30;;;28.70;79.50;;;;;;4916648;29;20314;-77
2021/06/11 13:46:01;;;;;;;7.07;4.70;;;28.70;75.70;;;;;;4916533;29;20498;-78
2021/06/11 13:48:26;;;;;;;5.60;4.57;;;28.80;76.50;;;;;;4916252;29;20183;-77
2021/06/11 13:50:52;;;;;;;7.87;4.97;;;28.80;76.00;;;;;;4916309;29;20215;-77
2021/06/11 13:53:18;;;;;;;5.20;4.40;;;28.90;76.90;;;;;;4916489;29;20183;-77
2021/06/11 13:55:43;;;;;;;11.10;4.73;;;28.90;76.90;;;;;;4916453;29;20596;-78
2021/06/11 13:58:09;;;;;;;9.80;5.03;;;28.90;76.90;;;;;;4916650;29;20183;-77
2021/06/11 14:00:35;;;;;;;10.17;5.37;;;28.80;75.30;;;;;;4916218;29;20188;-76
2021/06/11 14:03:01;;;;;;;7.33;4.67;;;28.70;75.90;;;;;;4932963;29;20180;-77
2021/06/11 14:05:30;;;;;;;5.50;5.20;;;28.70;76.70;;;;;;4916153;29;20428;-77
2021/06/11 14:07:56;;;;;;;10.30;5.80;;;28.70;76.70;;;;;;4917778;29;20188;-77
2021/06/11 14:10:23;;;;;;;5.93;5.40;;;28.50;75.50;;;;;;4916084;29;20872;-77
2021/06/11 14:12:50;;;;;;;6.63;5.20;;;28.30;76.90;;;;;;4916016;29;20420;-77
2021/06/11 14:15:16;;;;;;;5.67;4.90;;;28.30;77.30;;;;;;4916386;29;20454;-77
2021/06/11 14:17:42;;;;;;;7.23;5.20;;;28.50;78.10;;;;;;4916007;29;20428;-76
2021/06/11 14:20:09;;;;;;;7.87;4.70;;;28.60;78.10;;;;;;4917229;29;20827;-77
2021/06/11 14:22:35;;;;;;;7.13;5.60;;;28.60;77.80;;;;;;4917576;29;20311;-76
2021/06/11 14:25:01;;;;;;;11.77;5.30;;;28.70;75.90;;;;;;4916653;29;20506;-76
2021/06/11 14:27:27;;;;;;;5.73;5.00;;;28.80;76.10;;;;;;4915925;29;20192;-75
2021/06/11 14:29:53;;;;;;;6.70;4.67;;;28.90;76.10;;;;;;4932914;29;20211;-74
2021/06/11 14:32:19;;;;;;;6.40;5.07;;;29.00;75.60;;;;;;4918727;29;20195;-74
2021/06/11 14:34:47;;;;;;;5.83;4.50;;;29.10;77.20;;;;;;4918877;29;20411;-75
2021/06/11 14:37:14;;;;;;;6.97;5.17;;;29.20;76.00;;;;;;4919024;29;20419;-73
2021/06/11 14:39:39;;;;;;;5.70;4.10;;;29.20;75.70;;;;;;4918939;29;20432;-74
2021/06/11 14:42:05;;;;;;;5.90;4.57;;;29.10;75.90;;;;;;4918824;29;20798;-75
2021/06/11 14:44:31;;;;;;;6.40;4.60;;;29.00;76.80;;;;;;4918746;29;20180;-76
2021/06/11 14:46:57;;;;;;;5.70;4.73;;;28.70;75.90;;;;;;4918600;29;20175;-76
2021/06/11 14:49:23;;;;;;;8.60;5.23;;;28.40;77.20;;;;;;4918336;29;20618;-76
2021/06/11 14:51:48;;;;;;;10.33;5.40;;;28.20;76.60;;;;;;4935476;29;20203;-76
2021/06/11 14:54:14;;;;;;;6.57;4.90;;;27.90;77.60;;;;;;4918575;29;20431;-76
2021/06/11 14:56:46;;;;;;;6.37;4.87;;;27.80;78.20;;;;;;4918163;29;20206;-76
2021/06/11 14:59:12;;;;;;;7.27;5.10;;;27.70;78.90;;;;;;4917939;29;20187;-78
2021/06/11 15:01:40;;;;;;;6.63;4.77;;;28.00;78.50;;;;;;4918169;29;20883;-77
2021/06/11 15:04:05;;;;;;;11.33;4.60;;;28.30;79.10;;;;;;4918092;29;20188;-78
2021/06/11 15:06:31;;;;;;;8.40;4.70;;;28.70;77.70;;;;;;4918735;29;20486;-76
2021/06/11 15:08:57;;;;;;;7.50;4.83;;;28.90;77.30;;;;;;4917996;29;20184;-77
2021/06/11 15:11:23;;;;;;;8.07;4.63;;;29.10;76.10;;;;;;4918048;29;20199;-79